KHKA/HKA METAR and TAF weather

Enter ICAO airport designator
Station Type Date Time Source
KHKA METAR 2022/06/28 14:53 UTC NOAA

KHKA 281453Z AUTO VRB06KT 10SM CLR 26/14 A3023 RMK AO2 SLP235 T02610139 51004


Station Type Date Time Source
KHKA Decoded METAR 2022/06/28 14:53 UTC NOAA

BLYTHEVILLE MUNICIPAL AIRPORT , AR, United States (KHKA) 35-56N 89-50W 78M
Jun 28, 2022 - 10:53 AM EDT / 2022.06.28 1453 UTC
Wind: Variable at 7 MPH (6 KT):0
Visibility: 10 mile(s):0
Sky conditions: clear
Temperature: 79.0 F (26.1 C)
Dew Point: 57.0 F (13.9 C)
Relative Humidity: 46%
Pressure (altimeter): 30.23 in. Hg (1023 hPa)
Pressure tendency: 0.01 inches (0.4 hPa) higher than three hours ago
ob: KHKA 281453Z AUTO VRB06KT 10SM CLR 26/14 A3023 RMK AO2 SLP235 T02610139 51004
cycle: 15

Station Type Date Time Source
KHKA TAF UTC NOAA

Error!

Example: see airport list